createdAt,value
2022-12-01T00:00:03.718Z,35.92
2022-12-01T00:01:08.656Z,37.03
2022-12-01T00:02:11.953Z,37.70
2022-12-01T00:03:14.654Z,34.75
2022-12-01T00:04:17.827Z,35.15
2022-12-01T00:05:20.308Z,34.60
2022-12-01T00:06:23.604Z,35.78
2022-12-01T00:07:25.687Z,35.70
2022-12-01T00:08:29.445Z,34.03
2022-12-01T00:09:50.418Z,32.25
2022-12-01T00:10:53.513Z,35.20
2022-12-01T00:11:58.188Z,34.00
2022-12-01T00:13:02.441Z,34.53
2022-12-01T00:14:06.299Z,37.85
2022-12-01T00:15:08.587Z,36.70
2022-12-01T00:16:13.617Z,38.17
2022-12-01T00:17:15.875Z,34.78
2022-12-01T00:18:19.069Z,37.28
2022-12-01T00:19:24.709Z,37.33
2022-12-01T00:20:28.150Z,37.60
2022-12-01T00:21:30.304Z,37.92
2022-12-01T00:22:33.503Z,37.03
2022-12-01T00:23:35.705Z,36.72
2022-12-01T00:24:41.696Z,37.15
2022-12-01T00:25:43.832Z,38.78
2022-12-01T00:26:47.357Z,37.72
2022-12-01T00:27:52.842Z,40.13
2022-12-01T00:29:00.282Z,35.85
2022-12-01T00:30:02.481Z,39.17
2022-12-01T00:31:08.620Z,40.22
2022-12-01T00:32:10.838Z,37.83
2022-12-01T00:33:14.643Z,38.20
2022-12-01T00:34:24.775Z,38.13
2022-12-01T00:35:27.899Z,37.72
2022-12-01T00:36:30.205Z,37.10
2022-12-01T00:37:34.712Z,39.80
2022-12-01T00:38:37.244Z,35.90
2022-12-01T00:39:40.415Z,39.03
2022-12-01T00:40:42.916Z,39.45
2022-12-01T00:41:45.988Z,37.70
2022-12-01T00:42:48.031Z,38.78
2022-12-01T00:43:53.122Z,38.92
2022-12-01T00:44:55.224Z,39.50
2022-12-01T00:45:58.576Z,35.35
2022-12-01T00:47:00.694Z,37.40
2022-12-01T00:48:03.695Z,39.38
2022-12-01T00:49:06.059Z,37.45
2022-12-01T00:50:09.787Z,35.70
2022-12-01T00:51:11.934Z,36.78
2022-12-01T00:52:16.069Z,35.25
2022-12-01T00:53:18.170Z,34.45
2022-12-01T00:54:21.248Z,34.85
2022-12-01T00:55:23.291Z,36.78
2022-12-01T00:56:26.429Z,37.13
2022-12-01T00:57:28.452Z,34.83
2022-12-01T00:58:31.652Z,34.53
2022-12-01T00:59:35.752Z,36.90
2022-12-01T01:00:39.679Z,37.92
2022-12-01T01:01:41.845Z,36.83
2022-12-01T01:02:45.318Z,37.17
2022-12-01T01:03:47.440Z,37.33
2022-12-01T01:04:50.532Z,35.63
2022-12-01T01:05:52.599Z,35.78
2022-12-01T01:06:55.771Z,36.67
2022-12-01T01:07:57.869Z,35.92
2022-12-01T01:09:01.017Z,35.67
2022-12-01T01:10:03.172Z,40.92
2022-12-01T01:11:07.399Z,39.20
2022-12-01T01:12:09.438Z,36.25
2022-12-01T01:13:13.698Z,36.67
2022-12-01T01:14:16.130Z,35.08
2022-12-01T01:15:20.796Z,37.00
2022-12-01T01:16:22.976Z,35.88
2022-12-01T01:17:26.184Z,35.15
2022-12-01T01:18:28.640Z,36.05
2022-12-01T01:19:31.950Z,36.65
2022-12-01T01:20:34.248Z,35.03
2022-12-01T01:21:38.359Z,34.35
2022-12-01T01:22:40.508Z,34.45
2022-12-01T01:23:44.003Z,32.88
2022-12-01T01:24:47.229Z,33.47
2022-12-01T01:25:50.761Z,30.30
2022-12-01T01:26:55.329Z,32.97
2022-12-01T01:27:58.558Z,31.88
2022-12-01T01:29:04.782Z,32.65
2022-12-01T01:30:08.247Z,30.73
2022-12-01T01:31:15.330Z,30.92
2022-12-01T01:32:17.647Z,31.70
2022-12-01T01:33:20.790Z,32.15
2022-12-01T01:34:22.912Z,31.52
2022-12-01T01:35:26.302Z,30.50
2022-12-01T01:36:28.357Z,31.85
2022-12-01T01:37:31.418Z,29.55
2022-12-01T01:38:34.236Z,30.75
2022-12-01T01:39:37.345Z,31.73
2022-12-01T01:40:43.681Z,30.67
2022-12-01T01:41:46.805Z,33.28
2022-12-01T01:42:49.051Z,33.33
2022-12-01T01:43:53.744Z,31.40
2022-12-01T01:44:58.169Z,31.30
2022-12-01T01:46:01.325Z,32.15
2022-12-01T01:47:04.887Z,32.53
2022-12-01T01:48:08.971Z,32.08
2022-12-01T01:49:13.745Z,30.50
2022-12-01T01:50:19.558Z,30.40
2022-12-01T01:51:26.967Z,31.77
2022-12-01T01:52:30.085Z,30.38
2022-12-01T01:53:33.083Z,32.28
2022-12-01T01:54:40.424Z,33.58
2022-12-01T01:55:42.874Z,31.77
2022-12-01T01:56:46.757Z,31.80
2022-12-01T01:57:48.803Z,31.38
2022-12-01T01:58:53.356Z,30.90
2022-12-01T01:59:59.116Z,31.25
2022-12-01T02:01:02.353Z,31.15
2022-12-01T02:02:08.482Z,33.38
2022-12-01T02:03:15.913Z,32.08
2022-12-01T02:04:19.335Z,30.60
2022-12-01T02:05:25.485Z,32.40
2022-12-01T02:06:27.710Z,34.92
2022-12-01T02:07:30.900Z,29.98
2022-12-01T02:08:35.593Z,31.63
2022-12-01T02:09:38.750Z,33.72
2022-12-01T02:10:58.367Z,32.42
2022-12-01T02:12:13.283Z,33.00
2022-12-01T02:13:23.565Z,33.83
2022-12-01T02:14:49.565Z,33.88
2022-12-01T02:15:59.180Z,32.08
2022-12-01T02:17:13.129Z,33.92
2022-12-01T02:18:27.880Z,32.78
2022-12-01T02:19:51.033Z,33.28
2022-12-01T02:21:19.180Z,33.90
2022-12-01T02:22:31.548Z,34.28
2022-12-01T02:24:21.559Z,32.15
2022-12-01T02:25:34.857Z,32.20
2022-12-01T02:26:48.470Z,34.60
2022-12-01T02:28:25.240Z,35.63
2022-12-01T02:30:06.899Z,33.05
2022-12-01T02:31:16.682Z,33.75
2022-12-01T02:32:30.781Z,33.20
2022-12-01T02:33:38.805Z,33.50
2022-12-01T02:34:46.929Z,33.83
2022-12-01T02:35:52.489Z,33.97
2022-12-01T02:36:59.656Z,35.20
2022-12-01T02:38:13.043Z,39.20
2022-12-01T02:39:21.472Z,35.90
2022-12-01T02:40:28.148Z,37.42
2022-12-01T02:41:38.654Z,35.55
2022-12-01T02:42:51.784Z,37.35
2022-12-01T02:44:00.151Z,34.88
2022-12-01T02:45:05.872Z,38.60
2022-12-01T02:46:16.367Z,37.95
2022-12-01T02:47:19.615Z,37.47
2022-12-01T02:48:29.478Z,37.35
2022-12-01T02:49:36.060Z,39.65
2022-12-01T02:50:40.915Z,38.85
2022-12-01T02:51:44.883Z,39.40
2022-12-01T02:52:48.874Z,38.22
2022-12-01T02:53:51.517Z,39.33
2022-12-01T02:54:54.898Z,42.35
2022-12-01T02:55:58.868Z,38.85
2022-12-01T02:57:02.036Z,38.58
2022-12-01T02:58:14.023Z,41.35
2022-12-01T02:59:17.494Z,40.00
2022-12-01T03:00:19.864Z,39.95
2022-12-01T03:01:39.733Z,39.58
2022-12-01T03:02:54.132Z,39.10
2022-12-01T03:04:06.736Z,42.17
2022-12-01T03:05:14.297Z,40.53
2022-12-01T03:06:25.309Z,40.25
2022-12-01T03:07:43.686Z,43.78
2022-12-01T03:08:56.530Z,40.28
2022-12-01T03:10:09.386Z,37.97
2022-12-01T03:11:26.945Z,40.60
2022-12-01T03:12:38.253Z,36.10
2022-12-01T03:13:48.469Z,40.78
2022-12-01T03:14:58.102Z,39.75
2022-12-01T03:16:09.201Z,40.08
2022-12-01T03:17:16.947Z,35.67
2022-12-01T03:18:34.143Z,41.58
2022-12-01T03:19:40.296Z,38.60
2022-12-01T03:20:48.616Z,38.63
2022-12-01T03:21:55.997Z,37.30
2022-12-01T03:23:07.763Z,39.42
2022-12-01T03:24:14.068Z,40.38
2022-12-01T03:25:18.876Z,39.70
2022-12-01T03:26:23.201Z,38.88
2022-12-01T03:27:30.904Z,38.65
2022-12-01T03:28:37.896Z,38.20
2022-12-01T03:29:44.419Z,39.25
2022-12-01T03:30:49.234Z,41.58
2022-12-01T03:31:58.715Z,38.53
2022-12-01T03:33:12.247Z,38.42
2022-12-01T03:34:19.171Z,38.25
2022-12-01T03:35:27.026Z,41.42
2022-12-01T03:36:35.043Z,38.28
2022-12-01T03:37:41.235Z,39.55
2022-12-01T03:38:49.889Z,38.53
2022-12-01T03:40:00.005Z,40.53
2022-12-01T03:41:10.409Z,38.30
2022-12-01T03:42:16.793Z,39.70
2022-12-01T03:43:22.256Z,38.75
2022-12-01T03:44:29.701Z,42.28
2022-12-01T03:45:35.638Z,35.55
2022-12-01T03:46:47.460Z,38.65
2022-12-01T03:47:51.665Z,42.08
2022-12-01T03:48:55.503Z,40.63
2022-12-01T03:50:00.227Z,38.38
2022-12-01T03:51:11.626Z,40.33
2022-12-01T03:52:21.245Z,42.60
2022-12-01T03:53:27.723Z,39.20
2022-12-01T03:54:40.520Z,37.80
2022-12-01T03:55:43.925Z,40.72
2022-12-01T03:56:50.700Z,40.95
2022-12-01T03:57:57.071Z,40.40
2022-12-01T03:59:03.969Z,40.88
2022-12-01T04:00:08.001Z,37.85
2022-12-01T04:01:15.965Z,37.50
2022-12-01T04:02:18.484Z,41.17
2022-12-01T04:03:26.153Z,37.20
2022-12-01T04:04:29.658Z,40.03
2022-12-01T04:05:33.832Z,39.15
2022-12-01T04:06:36.356Z,39.97
2022-12-01T04:07:40.209Z,39.90
2022-12-01T04:08:42.329Z,40.22
2022-12-01T04:09:45.383Z,39.70
2022-12-01T04:10:47.432Z,37.80
2022-12-01T04:12:07.737Z,40.10
2022-12-01T04:13:16.657Z,35.95
2022-12-01T04:14:18.773Z,35.28
2022-12-01T04:15:21.892Z,34.17
2022-12-01T04:16:23.942Z,36.17
2022-12-01T04:17:28.106Z,37.72
2022-12-01T04:18:30.084Z,39.30
2022-12-01T04:19:34.713Z,36.72
2022-12-01T04:20:36.708Z,39.25
2022-12-01T04:21:39.977Z,39.47
2022-12-01T04:22:42.497Z,36.10
2022-12-01T04:24:03.709Z,38.25
2022-12-01T04:25:07.103Z,36.90
2022-12-01T04:26:15.574Z,36.38
2022-12-01T04:27:19.151Z,38.40
2022-12-01T04:28:21.197Z,36.08
2022-12-01T04:29:24.353Z,38.75
2022-12-01T04:30:26.425Z,35.47
2022-12-01T04:31:29.627Z,35.80
2022-12-01T04:32:31.848Z,36.58
2022-12-01T04:33:35.003Z,36.78
2022-12-01T04:34:38.501Z,36.08
2022-12-01T04:35:41.508Z,35.20
2022-12-01T04:36:43.610Z,38.80
2022-12-01T04:37:46.718Z,35.22
2022-12-01T04:38:48.711Z,39.45
2022-12-01T04:39:52.204Z,33.88
2022-12-01T04:40:54.367Z,35.80
2022-12-01T04:41:57.427Z,35.80
2022-12-01T04:42:59.597Z,39.22
2022-12-01T04:44:10.382Z,36.30
2022-12-01T04:45:12.386Z,35.10
2022-12-01T04:46:15.894Z,37.67
2022-12-01T04:47:18.963Z,35.55
2022-12-01T04:48:21.147Z,37.00
2022-12-01T04:49:24.349Z,33.95
2022-12-01T04:50:27.849Z,35.08
2022-12-01T04:51:31.004Z,35.58
2022-12-01T04:52:36.564Z,34.85
2022-12-01T04:53:39.698Z,35.22
2022-12-01T04:54:41.807Z,34.90
2022-12-01T04:55:44.932Z,34.47
2022-12-01T04:56:48.076Z,35.58
2022-12-01T04:57:50.146Z,33.95
2022-12-01T04:58:53.197Z,35.40
2022-12-01T04:59:55.374Z,34.28
2022-12-01T05:01:02.782Z,36.28
2022-12-01T05:02:05.973Z,35.75
2022-12-01T05:03:13.585Z,32.75
2022-12-01T05:04:18.271Z,35.28
2022-12-01T05:05:20.471Z,33.08
2022-12-01T05:06:26.581Z,33.22
2022-12-01T05:07:28.712Z,31.67
2022-12-01T05:08:31.801Z,33.08
2022-12-01T05:09:33.998Z,35.75
2022-12-01T05:10:37.668Z,34.05
2022-12-01T05:11:39.809Z,35.78
2022-12-01T05:12:42.968Z,34.95
2022-12-01T05:13:47.311Z,34.92
2022-12-01T05:14:50.465Z,34.65
2022-12-01T05:15:53.025Z,34.58
2022-12-01T05:16:58.053Z,35.53
2022-12-01T05:18:00.699Z,31.52
2022-12-01T05:19:23.463Z,35.42
2022-12-01T05:20:45.162Z,33.60
2022-12-01T05:21:50.715Z,30.65
2022-12-01T05:23:10.825Z,34.67
2022-12-01T05:24:16.654Z,31.73
2022-12-01T05:25:18.765Z,31.92
2022-12-01T05:26:21.788Z,33.63
2022-12-01T05:27:23.854Z,34.40
2022-12-01T05:28:27.868Z,32.30
2022-12-01T05:29:29.865Z,31.95
2022-12-01T05:30:33.055Z,31.25
2022-12-01T05:31:35.682Z,33.30
2022-12-01T05:32:38.727Z,32.28
2022-12-01T05:33:40.792Z,30.50
2022-12-01T05:34:43.875Z,32.42
2022-12-01T05:35:47.293Z,32.47
2022-12-01T05:36:51.729Z,32.47
2022-12-01T05:37:53.806Z,32.42
2022-12-01T05:38:56.959Z,29.90
2022-12-01T05:39:59.019Z,30.50
2022-12-01T05:41:02.186Z,32.85
2022-12-01T05:42:04.448Z,31.40
2022-12-01T05:43:08.036Z,31.88
2022-12-01T05:44:10.080Z,30.83
2022-12-01T05:45:13.125Z,32.00
2022-12-01T05:46:15.255Z,32.75
2022-12-01T05:47:19.009Z,30.70
2022-12-01T05:48:21.360Z,31.40
2022-12-01T05:49:24.555Z,32.05
2022-12-01T05:50:28.069Z,30.35
2022-12-01T05:51:31.873Z,31.70
2022-12-01T05:52:35.810Z,30.85
2022-12-01T05:53:39.365Z,31.73
2022-12-01T05:54:41.642Z,30.48
2022-12-01T05:55:45.021Z,33.53
2022-12-01T05:56:47.097Z,32.00
2022-12-01T05:57:50.353Z,29.30
2022-12-01T05:58:53.441Z,31.67
2022-12-01T05:59:55.541Z,30.48
2022-12-01T06:00:58.742Z,30.33
2022-12-01T06:02:00.890Z,29.70
2022-12-01T06:03:04.896Z,31.55
2022-12-01T06:04:07.102Z,31.33
2022-12-01T06:05:11.010Z,32.70
2022-12-01T06:06:13.145Z,30.02
2022-12-01T06:07:16.202Z,30.02
2022-12-01T06:08:20.918Z,30.40
2022-12-01T06:09:22.970Z,31.80
2022-12-01T06:10:26.062Z,33.20
2022-12-01T06:11:28.110Z,32.08
2022-12-01T06:12:31.287Z,31.23
2022-12-01T06:13:34.445Z,30.20
2022-12-01T06:14:36.462Z,32.25
2022-12-01T06:15:39.601Z,32.22
2022-12-01T06:16:41.732Z,34.35
2022-12-01T06:17:44.920Z,31.63
2022-12-01T06:18:48.043Z,33.20
2022-12-01T06:19:50.358Z,29.52
2022-12-01T06:20:53.571Z,30.98
2022-12-01T06:21:55.618Z,29.63
2022-12-01T06:22:59.615Z,28.25
2022-12-01T06:24:03.189Z,32.65
2022-12-01T06:25:07.230Z,31.63
2022-12-01T06:26:09.423Z,29.50
2022-12-01T06:27:12.470Z,30.25
2022-12-01T06:28:14.594Z,29.65
2022-12-01T06:29:17.746Z,30.20
2022-12-01T06:30:20.958Z,32.50
2022-12-01T06:31:23.151Z,29.67
2022-12-01T06:32:26.258Z,28.58
2022-12-01T06:33:28.381Z,30.00
2022-12-01T06:34:31.477Z,31.50
2022-12-01T06:35:35.529Z,31.02
2022-12-01T06:36:37.583Z,31.30
2022-12-01T06:37:40.763Z,28.40
2022-12-01T06:38:43.896Z,32.15
2022-12-01T06:39:47.684Z,28.50
2022-12-01T06:40:51.099Z,31.20
2022-12-01T06:41:54.280Z,34.50
2022-12-01T06:43:02.041Z,32.65
2022-12-01T06:44:04.451Z,32.60
2022-12-01T06:45:08.352Z,30.98
2022-12-01T06:46:10.410Z,29.10
2022-12-01T06:47:14.016Z,32.95
2022-12-01T06:48:16.089Z,30.48
2022-12-01T06:49:19.634Z,29.85
2022-12-01T06:50:23.208Z,30.55
2022-12-01T06:51:25.321Z,31.88
2022-12-01T06:52:28.415Z,26.90
2022-12-01T06:53:30.573Z,30.45
2022-12-01T06:54:33.767Z,31.08
2022-12-01T06:55:38.456Z,27.98
2022-12-01T06:56:42.927Z,28.55
2022-12-01T06:57:45.297Z,30.05
2022-12-01T06:58:48.452Z,28.67
2022-12-01T06:59:52.254Z,27.73
2022-12-01T07:00:54.850Z,29.73
2022-12-01T07:01:58.827Z,29.75
2022-12-01T07:03:03.208Z,29.23
2022-12-01T07:04:05.273Z,28.90
2022-12-01T07:05:09.195Z,30.65
2022-12-01T07:06:11.190Z,29.75
2022-12-01T07:07:14.620Z,26.35
2022-12-01T07:08:16.745Z,31.33
2022-12-01T07:09:20.099Z,27.98
2022-12-01T07:10:22.368Z,28.95
2022-12-01T07:11:26.971Z,30.05
2022-12-01T07:12:30.735Z,27.35
2022-12-01T07:13:34.212Z,29.15
2022-12-01T07:14:36.688Z,28.00
2022-12-01T07:15:39.830Z,29.70
2022-12-01T07:16:42.110Z,28.38
2022-12-01T07:17:45.297Z,29.25
2022-12-01T07:18:47.438Z,28.33
2022-12-01T07:19:50.683Z,28.30
2022-12-01T07:20:52.897Z,28.88
2022-12-01T07:21:56.244Z,29.73
2022-12-01T07:22:58.276Z,29.85
2022-12-01T07:24:01.427Z,29.17
2022-12-01T07:25:03.990Z,28.90
2022-12-01T07:26:09.094Z,27.85
2022-12-01T07:27:12.541Z,31.98
2022-12-01T07:28:15.687Z,28.27
2022-12-01T07:29:17.881Z,27.85
2022-12-01T07:30:24.229Z,30.55
2022-12-01T07:31:30.321Z,29.50
2022-12-01T07:32:33.941Z,30.45
2022-12-01T07:33:36.354Z,28.63
2022-12-01T07:34:39.379Z,29.25
2022-12-01T07:35:41.395Z,28.52
2022-12-01T07:36:44.472Z,28.08
2022-12-01T07:37:46.516Z,31.83
2022-12-01T07:38:49.580Z,28.60
2022-12-01T07:39:51.738Z,28.48
2022-12-01T07:40:54.921Z,30.58
2022-12-01T07:41:57.042Z,33.00
2022-12-01T07:43:01.607Z,29.63
2022-12-01T07:44:03.924Z,32.50
2022-12-01T07:45:07.788Z,29.50
2022-12-01T07:46:18.740Z,31.08
2022-12-01T07:47:23.665Z,29.10
2022-12-01T07:48:25.825Z,29.40
2022-12-01T07:49:28.965Z,31.60
2022-12-01T07:50:31.029Z,29.30
2022-12-01T07:51:34.700Z,27.50
2022-12-01T07:52:36.685Z,26.80
2022-12-01T07:53:40.485Z,28.95
2022-12-01T07:54:42.563Z,27.75
2022-12-01T07:55:50.305Z,27.75
2022-12-01T07:56:54.395Z,27.10
2022-12-01T07:58:01.565Z,28.27
2022-12-01T07:59:04.599Z,26.20
2022-12-01T08:00:09.006Z,29.90
2022-12-01T08:01:15.941Z,28.85
2022-12-01T08:02:19.194Z,27.23
2022-12-01T08:03:21.639Z,28.25
2022-12-01T08:04:24.933Z,30.33
2022-12-01T08:05:26.966Z,29.13
2022-12-01T08:06:30.167Z,27.05
2022-12-01T08:07:32.279Z,27.63
2022-12-01T08:08:36.912Z,28.40
2022-12-01T08:09:39.948Z,30.55
2022-12-01T08:10:41.946Z,27.02
2022-12-01T08:11:45.128Z,26.13
2022-12-01T08:12:47.782Z,27.55
2022-12-01T08:13:53.630Z,27.40
2022-12-01T08:14:56.738Z,31.23
2022-12-01T08:15:59.091Z,24.95
2022-12-01T08:17:02.159Z,26.98
2022-12-01T08:18:05.664Z,27.52
2022-12-01T08:19:11.675Z,27.73
2022-12-01T08:20:19.558Z,28.20
2022-12-01T08:21:25.723Z,27.63
2022-12-01T08:22:27.795Z,26.35
2022-12-01T08:23:30.871Z,26.02
2022-12-01T08:24:33.094Z,25.70
2022-12-01T08:25:38.325Z,27.58
2022-12-01T08:26:43.597Z,27.40
2022-12-01T08:27:46.863Z,25.77
2022-12-01T08:28:51.940Z,26.52
2022-12-01T08:29:57.641Z,27.67
2022-12-01T08:31:09.276Z,24.35
2022-12-01T08:32:13.108Z,24.50
2022-12-01T08:33:16.983Z,22.88
2022-12-01T08:34:19.709Z,25.05
2022-12-01T08:35:23.203Z,26.30
2022-12-01T08:36:27.320Z,24.58
2022-12-01T08:37:31.182Z,25.50
2022-12-01T08:38:35.403Z,25.38
2022-12-01T08:39:47.090Z,25.45
2022-12-01T08:40:49.520Z,24.15
2022-12-01T08:41:53.389Z,23.75
2022-12-01T08:42:55.657Z,24.63
2022-12-01T08:44:01.354Z,24.33
2022-12-01T08:45:08.996Z,24.13
2022-12-01T08:46:15.592Z,24.23
2022-12-01T08:47:21.489Z,24.90
2022-12-01T08:48:23.717Z,23.58
2022-12-01T08:49:27.023Z,26.77
2022-12-01T08:50:30.381Z,24.20
2022-12-01T08:51:36.347Z,24.17
2022-12-01T08:52:41.369Z,24.23
2022-12-01T08:53:45.996Z,24.17
2022-12-01T08:54:49.530Z,26.73
2022-12-01T08:55:52.012Z,24.15
2022-12-01T08:56:55.185Z,23.77
2022-12-01T08:57:57.972Z,25.48
2022-12-01T08:59:02.949Z,22.55
2022-12-01T09:00:06.293Z,21.33
2022-12-01T09:01:11.920Z,23.02
2022-12-01T09:02:15.499Z,20.63
2022-12-01T09:03:19.108Z,22.42
2022-12-01T09:04:24.920Z,24.52
2022-12-01T09:05:28.174Z,22.75
2022-12-01T09:06:32.200Z,24.70
2022-12-01T09:07:35.467Z,23.52
2022-12-01T09:08:56.110Z,23.33
2022-12-01T09:10:03.042Z,22.55
2022-12-01T09:11:08.067Z,24.83
2022-12-01T09:12:12.047Z,24.63
2022-12-01T09:13:17.064Z,25.05
2022-12-01T09:14:22.880Z,22.15
2022-12-01T09:15:26.022Z,22.80
2022-12-01T09:16:28.146Z,23.63
2022-12-01T09:17:31.410Z,25.40
2022-12-01T09:18:34.364Z,22.05
2022-12-01T09:19:37.618Z,23.13
2022-12-01T09:20:39.735Z,21.45
2022-12-01T09:21:45.284Z,23.63
2022-12-01T09:22:47.520Z,23.45
2022-12-01T09:23:51.430Z,26.33
2022-12-01T09:24:53.522Z,24.83
2022-12-01T09:25:56.678Z,24.15
2022-12-01T09:27:00.509Z,24.15
2022-12-01T09:28:02.558Z,23.80
2022-12-01T09:29:10.155Z,23.55
2022-12-01T09:30:15.583Z,21.95
2022-12-01T09:31:20.690Z,21.65
2022-12-01T09:32:23.931Z,21.60
2022-12-01T09:33:26.003Z,20.98
2022-12-01T09:34:30.305Z,22.95
2022-12-01T09:35:34.045Z,21.15
2022-12-01T09:36:38.376Z,20.77
2022-12-01T09:37:40.413Z,21.85
2022-12-01T09:38:43.968Z,20.73
2022-12-01T09:39:47.389Z,22.83
2022-12-01T09:40:52.993Z,22.60
2022-12-01T09:42:00.382Z,21.60
2022-12-01T09:43:05.737Z,21.55
2022-12-01T09:44:17.137Z,22.40
2022-12-01T09:45:28.658Z,21.98
2022-12-01T09:46:36.938Z,21.63
2022-12-01T09:47:40.183Z,22.65
2022-12-01T09:48:44.274Z,22.30
2022-12-01T09:49:54.485Z,22.75
2022-12-01T09:50:57.887Z,22.95
2022-12-01T09:52:01.819Z,21.02
2022-12-01T09:53:09.710Z,24.08
2022-12-01T09:54:15.346Z,24.05
2022-12-01T09:55:20.859Z,22.17
2022-12-01T09:56:26.717Z,21.40
2022-12-01T09:57:33.567Z,23.02
2022-12-01T09:58:36.061Z,22.63
2022-12-01T09:59:43.283Z,21.52
2022-12-01T10:00:49.426Z,21.33
2022-12-01T10:01:56.537Z,22.65
2022-12-01T10:03:06.952Z,23.05
2022-12-01T10:04:15.209Z,21.70
2022-12-01T10:05:21.118Z,23.45
2022-12-01T10:06:29.693Z,20.98
2022-12-01T10:07:37.750Z,21.63
2022-12-01T10:08:45.335Z,22.75
2022-12-01T10:09:53.594Z,23.90
2022-12-01T10:11:07.053Z,22.27
2022-12-01T10:12:15.824Z,21.50
2022-12-01T10:13:35.869Z,23.45
2022-12-01T10:14:38.053Z,22.45
2022-12-01T10:15:53.408Z,23.25
2022-12-01T10:17:04.477Z,23.20
2022-12-01T10:18:30.732Z,22.05
2022-12-01T10:19:44.921Z,23.50
2022-12-01T10:20:53.021Z,24.02
2022-12-01T10:22:41.174Z,22.67
2022-12-01T10:23:57.686Z,23.02
2022-12-01T10:25:07.985Z,21.65
2022-12-01T10:26:16.072Z,22.45
2022-12-01T10:27:30.626Z,21.83
2022-12-01T10:28:51.612Z,22.88
2022-12-01T10:30:02.787Z,21.88
2022-12-01T10:31:15.604Z,21.70
2022-12-01T10:32:21.657Z,25.30
2022-12-01T10:33:25.834Z,23.42
2022-12-01T10:34:31.106Z,23.00
2022-12-01T10:35:37.166Z,21.63
2022-12-01T10:36:40.457Z,23.52
2022-12-01T10:37:46.557Z,21.13
2022-12-01T10:38:56.458Z,21.75
2022-12-01T10:40:00.104Z,21.75
2022-12-01T10:41:04.455Z,23.30
2022-12-01T10:42:14.367Z,21.77
2022-12-01T10:43:21.156Z,20.70
2022-12-01T10:44:24.341Z,22.40
2022-12-01T10:45:29.526Z,21.55
2022-12-01T10:46:41.886Z,21.92
2022-12-01T10:48:13.141Z,22.20
2022-12-01T10:49:18.190Z,21.02
2022-12-01T10:50:27.089Z,21.48
2022-12-01T10:51:30.882Z,22.30
2022-12-01T10:52:36.984Z,21.27
2022-12-01T10:53:40.141Z,21.42
2022-12-01T10:54:43.448Z,21.67
2022-12-01T10:55:49.346Z,19.52
2022-12-01T10:56:57.009Z,21.17
2022-12-01T10:58:09.102Z,22.05
2022-12-01T10:59:27.568Z,20.52
2022-12-01T11:00:58.726Z,20.52
2022-12-01T11:02:00.872Z,20.23
2022-12-01T11:03:03.984Z,20.67
2022-12-01T11:04:09.422Z,22.35
2022-12-01T11:05:25.840Z,23.40
2022-12-01T11:06:30.424Z,20.45
2022-12-01T11:07:36.112Z,21.33
2022-12-01T11:08:41.558Z,21.80
2022-12-01T11:09:47.708Z,24.88
2022-12-01T11:10:52.301Z,21.33
2022-12-01T11:11:58.350Z,22.83
2022-12-01T11:13:06.036Z,22.17
2022-12-01T11:14:20.046Z,21.92
2022-12-01T11:15:25.108Z,24.15
2022-12-01T11:16:41.187Z,22.00
2022-12-01T11:17:46.683Z,21.88
2022-12-01T11:18:49.009Z,21.17
2022-12-01T11:19:52.754Z,22.98
2022-12-01T11:21:10.369Z,21.75
2022-12-01T11:22:23.040Z,21.00
2022-12-01T11:23:28.163Z,20.70
2022-12-01T11:24:45.710Z,19.65
2022-12-01T11:25:58.095Z,19.70
2022-12-01T11:27:02.220Z,21.33
2022-12-01T11:28:05.131Z,21.63
2022-12-01T11:29:29.258Z,20.30
2022-12-01T11:30:34.165Z,23.48
2022-12-01T11:31:39.458Z,21.20
2022-12-01T11:32:52.568Z,23.27
2022-12-01T11:33:57.017Z,20.75
2022-12-01T11:35:02.890Z,20.55
2022-12-01T11:36:06.037Z,22.15
2022-12-01T11:37:16.832Z,21.80
2022-12-01T11:38:30.404Z,22.90
2022-12-01T11:39:36.001Z,21.48
2022-12-01T11:40:47.637Z,22.02
2022-12-01T11:41:55.535Z,22.50
2022-12-01T11:43:01.070Z,22.58
2022-12-01T11:44:12.723Z,20.52
2022-12-01T11:45:29.476Z,22.50
2022-12-01T11:46:36.961Z,23.60
2022-12-01T11:48:00.368Z,22.48
2022-12-01T11:49:05.371Z,22.38
2022-12-01T11:50:25.919Z,23.20
2022-12-01T11:51:37.216Z,20.75
2022-12-01T11:52:48.306Z,21.08
2022-12-01T11:55:23.571Z,23.00
2022-12-01T11:56:29.312Z,21.40
2022-12-01T11:57:34.512Z,22.92
2022-12-01T11:58:38.243Z,23.42
2022-12-01T11:59:41.399Z,22.30
2022-12-01T12:00:50.927Z,23.13
2022-12-01T12:02:22.303Z,23.83
2022-12-01T12:03:31.527Z,21.10
2022-12-01T12:05:04.899Z,21.00
2022-12-01T12:07:53.588Z,19.83
2022-12-01T12:09:10.167Z,22.42
2022-12-01T12:10:28.095Z,19.13
2022-12-01T12:11:40.983Z,20.65
2022-12-01T12:13:01.134Z,20.80
2022-12-01T12:14:17.986Z,20.63
2022-12-01T12:15:31.234Z,21.90
2022-12-01T12:16:57.346Z,21.58
2022-12-01T12:18:26.423Z,21.30
2022-12-01T12:20:07.303Z,20.92
2022-12-01T12:21:21.607Z,20.33
2022-12-01T12:22:36.774Z,20.95
2022-12-01T12:24:04.811Z,20.38
2022-12-01T12:25:23.294Z,20.75
2022-12-01T12:26:28.653Z,22.65
2022-12-01T12:27:44.362Z,22.15
2022-12-01T12:29:14.099Z,21.85
2022-12-01T12:30:21.364Z,22.00
2022-12-01T12:31:35.672Z,22.25
2022-12-01T12:33:11.016Z,21.88
2022-12-01T12:34:49.738Z,23.88
2022-12-01T12:36:01.857Z,21.15
2022-12-01T12:37:17.530Z,21.50
2022-12-01T12:38:42.774Z,20.85
2022-12-01T12:40:14.588Z,23.13
2022-12-01T12:41:29.884Z,21.77
2022-12-01T12:42:50.555Z,21.95
2022-12-01T12:44:07.705Z,22.35
2022-12-01T12:45:23.016Z,21.45
2022-12-01T12:46:34.163Z,22.13
2022-12-01T12:47:50.186Z,24.10
2022-12-01T12:49:20.169Z,23.45
2022-12-01T12:50:31.377Z,23.00
2022-12-01T12:51:38.086Z,23.55
2022-12-01T12:52:44.199Z,21.30
2022-12-01T12:53:52.912Z,23.83
2022-12-01T12:54:59.409Z,23.50
2022-12-01T12:56:07.763Z,22.00
2022-12-01T12:57:34.850Z,23.50
2022-12-01T12:58:42.361Z,24.08
2022-12-01T12:59:53.134Z,22.25
2022-12-01T13:01:04.494Z,22.33
2022-12-01T13:02:13.012Z,22.50
2022-12-01T13:03:21.286Z,24.38
2022-12-01T13:04:29.166Z,23.33
2022-12-01T13:05:39.573Z,24.73
2022-12-01T13:06:48.322Z,24.45
2022-12-01T13:07:54.968Z,22.70
2022-12-01T13:09:03.705Z,24.00
2022-12-01T13:10:16.080Z,22.45
2022-12-01T13:11:24.132Z,23.60
2022-12-01T13:12:29.828Z,24.30
2022-12-01T13:13:38.708Z,24.27
2022-12-01T13:14:47.508Z,24.92
2022-12-01T13:15:53.692Z,23.65
2022-12-01T13:17:04.030Z,24.58
2022-12-01T13:18:17.885Z,21.95
2022-12-01T13:19:26.913Z,22.60
2022-12-01T13:20:32.099Z,23.38
2022-12-01T13:21:42.077Z,24.60
2022-12-01T13:22:46.870Z,23.55
2022-12-01T13:23:51.964Z,24.92
2022-12-01T13:24:54.181Z,23.52
2022-12-01T13:26:00.203Z,21.85
2022-12-01T13:27:06.261Z,23.95
2022-12-01T13:28:20.186Z,22.25
2022-12-01T13:29:26.022Z,24.00
2022-12-01T13:30:28.376Z,23.70
2022-12-01T13:31:42.584Z,22.58
2022-12-01T13:32:47.207Z,24.13
2022-12-01T13:33:59.464Z,25.85
2022-12-01T13:35:06.433Z,24.05
2022-12-01T13:37:38.994Z,25.13
2022-12-01T13:38:41.252Z,23.70
2022-12-01T13:39:46.317Z,23.98
2022-12-01T13:40:49.119Z,23.33
2022-12-01T13:42:04.537Z,22.98
2022-12-01T13:43:17.011Z,24.08
2022-12-01T13:44:24.603Z,22.23
2022-12-01T13:45:33.417Z,22.73
2022-12-01T13:46:52.655Z,20.38
2022-12-01T13:47:57.232Z,22.25
2022-12-01T13:49:00.891Z,22.73
2022-12-01T13:50:40.277Z,23.33
2022-12-01T13:52:20.027Z,23.42
2022-12-01T13:53:30.251Z,21.33
2022-12-01T13:54:37.711Z,24.20
2022-12-01T13:55:58.528Z,23.40
2022-12-01T13:57:09.209Z,22.90
2022-12-01T16:22:56.679Z,24.40
2022-12-01T16:24:17.445Z,22.60
2022-12-01T16:25:41.827Z,22.55
2022-12-01T16:26:51.194Z,21.23
2022-12-01T16:28:03.017Z,20.55
2022-12-01T16:29:22.039Z,22.15
2022-12-01T16:30:45.506Z,21.15
2022-12-01T16:33:29.891Z,23.88
2022-12-01T16:34:49.091Z,21.55
2022-12-01T16:35:53.868Z,22.83
2022-12-01T16:36:57.949Z,25.92
2022-12-01T16:38:07.867Z,24.95
2022-12-01T16:39:46.569Z,25.75
2022-12-01T16:44:26.651Z,26.63
2022-12-01T16:47:04.095Z,23.83
2022-12-01T16:47:53.917Z,21.48
2022-12-01T16:49:48.936Z,27.55
2022-12-01T16:51:55.324Z,26.58
2022-12-01T16:56:06.661Z,21.75
2022-12-01T16:57:53.730Z,21.77
2022-12-01T17:01:23.436Z,22.42
2022-12-01T17:02:46.241Z,20.38
2022-12-01T17:04:18.162Z,19.83
2022-12-01T17:05:57.962Z,21.98